sensor_id;sensor_type;location;lat;lon;timestamp;P1;durP1;ratioP1;P2;durP2;ratioP2
6842;SDS011;3460;52.028;8.916;2024-02-26T00:01:27;4.23;;;3.03;;
6842;SDS011;3460;52.028;8.916;2024-02-26T00:03:55;2.87;;;2.40;;
6842;SDS011;3460;52.028;8.916;2024-02-26T00:06:24;4.60;;;3.13;;
6842;SDS011;3460;52.028;8.916;2024-02-26T00:08:51;4.23;;;2.67;;
6842;SDS011;3460;52.028;8.916;2024-02-26T00:11:18;3.47;;;2.67;;
6842;SDS011;3460;52.028;8.916;2024-02-26T00:13:44;5.93;;;3.00;;
6842;SDS011;3460;52.028;8.916;2024-02-26T00:16:11;4.53;;;2.90;;
6842;SDS011;3460;52.028;8.916;2024-02-26T00:18:38;3.30;;;2.60;;
6842;SDS011;3460;52.028;8.916;2024-02-26T00:21:06;4.97;;;2.63;;
6842;SDS011;3460;52.028;8.916;2024-02-26T00:23:33;5.37;;;2.90;;
6842;SDS011;3460;52.028;8.916;2024-02-26T00:26:00;4.73;;;2.60;;
6842;SDS011;3460;52.028;8.916;2024-02-26T00:28:26;2.97;;;2.33;;
6842;SDS011;3460;52.028;8.916;2024-02-26T00:30:54;3.07;;;2.23;;
6842;SDS011;3460;52.028;8.916;2024-02-26T00:33:22;2.70;;;2.20;;
6842;SDS011;3460;52.028;8.916;2024-02-26T00:35:48;3.23;;;2.53;;
6842;SDS011;3460;52.028;8.916;2024-02-26T00:38:17;5.00;;;2.50;;
6842;SDS011;3460;52.028;8.916;2024-02-26T00:40:43;3.27;;;2.30;;
6842;SDS011;3460;52.028;8.916;2024-02-26T00:43:10;2.70;;;2.37;;
6842;SDS011;3460;52.028;8.916;2024-02-26T00:45:37;4.13;;;2.43;;
6842;SDS011;3460;52.028;8.916;2024-02-26T00:48:04;3.73;;;2.27;;
6842;SDS011;3460;52.028;8.916;2024-02-26T00:50:32;3.43;;;2.40;;
6842;SDS011;3460;52.028;8.916;2024-02-26T00:52:59;4.33;;;2.67;;
6842;SDS011;3460;52.028;8.916;2024-02-26T00:55:27;4.60;;;2.43;;
6842;SDS011;3460;52.028;8.916;2024-02-26T00:57:54;3.57;;;2.10;;
6842;SDS011;3460;52.028;8.916;2024-02-26T01:00:21;3.60;;;2.47;;
6842;SDS011;3460;52.028;8.916;2024-02-26T01:02:48;2.67;;;2.10;;
6842;SDS011;3460;52.028;8.916;2024-02-26T01:05:14;5.83;;;2.30;;
6842;SDS011;3460;52.028;8.916;2024-02-26T01:07:42;3.23;;;2.20;;
6842;SDS011;3460;52.028;8.916;2024-02-26T01:10:09;3.10;;;2.30;;
6842;SDS011;3460;52.028;8.916;2024-02-26T01:12:37;3.10;;;2.20;;
6842;SDS011;3460;52.028;8.916;2024-02-26T01:15:04;3.20;;;1.93;;
6842;SDS011;3460;52.028;8.916;2024-02-26T01:17:33;2.93;;;2.17;;
6842;SDS011;3460;52.028;8.916;2024-02-26T01:20:00;3.17;;;2.10;;
6842;SDS011;3460;52.028;8.916;2024-02-26T01:22:27;3.70;;;1.80;;
6842;SDS011;3460;52.028;8.916;2024-02-26T01:24:53;2.10;;;1.80;;
6842;SDS011;3460;52.028;8.916;2024-02-26T01:27:21;2.63;;;2.00;;
6842;SDS011;3460;52.028;8.916;2024-02-26T01:29:53;2.47;;;1.80;;
6842;SDS011;3460;52.028;8.916;2024-02-26T01:32:19;1.80;;;1.60;;
6842;SDS011;3460;52.028;8.916;2024-02-26T01:34:46;1.73;;;1.40;;
6842;SDS011;3460;52.028;8.916;2024-02-26T01:37:13;3.10;;;1.60;;
6842;SDS011;3460;52.028;8.916;2024-02-26T01:39:39;2.30;;;1.90;;
6842;SDS011;3460;52.028;8.916;2024-02-26T01:42:06;2.03;;;1.70;;
6842;SDS011;3460;52.028;8.916;2024-02-26T01:44:33;1.97;;;1.47;;
6842;SDS011;3460;52.028;8.916;2024-02-26T01:47:01;2.20;;;1.77;;
6842;SDS011;3460;52.028;8.916;2024-02-26T01:49:29;1.90;;;1.40;;
6842;SDS011;3460;52.028;8.916;2024-02-26T01:51:56;2.47;;;1.80;;
6842;SDS011;3460;52.028;8.916;2024-02-26T01:54:24;2.87;;;2.00;;
6842;SDS011;3460;52.028;8.916;2024-02-26T01:56:51;3.37;;;1.50;;
6842;SDS011;3460;52.028;8.916;2024-02-26T01:59:18;2.47;;;1.63;;
6842;SDS011;3460;52.028;8.916;2024-02-26T02:01:48;3.17;;;1.73;;
6842;SDS011;3460;52.028;8.916;2024-02-26T02:04:20;2.43;;;1.50;;
6842;SDS011;3460;52.028;8.916;2024-02-26T02:06:47;1.77;;;1.50;;
6842;SDS011;3460;52.028;8.916;2024-02-26T02:09:15;3.10;;;1.50;;
6842;SDS011;3460;52.028;8.916;2024-02-26T02:11:41;2.90;;;1.43;;
6842;SDS011;3460;52.028;8.916;2024-02-26T02:14:09;2.17;;;1.53;;
6842;SDS011;3460;52.028;8.916;2024-02-26T02:16:36;1.87;;;1.47;;
6842;SDS011;3460;52.028;8.916;2024-02-26T02:19:02;1.80;;;1.50;;
6842;SDS011;3460;52.028;8.916;2024-02-26T02:21:31;2.00;;;1.37;;
6842;SDS011;3460;52.028;8.916;2024-02-26T02:23:57;2.13;;;1.60;;
6842;SDS011;3460;52.028;8.916;2024-02-26T02:26:24;2.40;;;1.57;;
6842;SDS011;3460;52.028;8.916;2024-02-26T02:28:51;2.27;;;1.63;;
6842;SDS011;3460;52.028;8.916;2024-02-26T02:31:19;3.27;;;1.50;;
6842;SDS011;3460;52.028;8.916;2024-02-26T02:33:46;1.37;;;1.20;;
6842;SDS011;3460;52.028;8.916;2024-02-26T02:36:12;2.13;;;1.53;;
6842;SDS011;3460;52.028;8.916;2024-02-26T02:38:44;2.43;;;1.30;;
6842;SDS011;3460;52.028;8.916;2024-02-26T02:41:16;1.63;;;1.40;;
6842;SDS011;3460;52.028;8.916;2024-02-26T02:43:43;1.30;;;1.20;;
6842;SDS011;3460;52.028;8.916;2024-02-26T02:46:10;2.00;;;1.20;;
6842;SDS011;3460;52.028;8.916;2024-02-26T02:48:37;2.03;;;1.33;;
6842;SDS011;3460;52.028;8.916;2024-02-26T02:51:04;2.47;;;1.30;;
6842;SDS011;3460;52.028;8.916;2024-02-26T02:53:31;1.30;;;1.20;;
6842;SDS011;3460;52.028;8.916;2024-02-26T02:55:59;1.80;;;1.50;;
6842;SDS011;3460;52.028;8.916;2024-02-26T02:58:26;2.87;;;1.20;;
6842;SDS011;3460;52.028;8.916;2024-02-26T03:00:52;1.70;;;1.40;;
6842;SDS011;3460;52.028;8.916;2024-02-26T03:03:20;1.40;;;1.20;;
6842;SDS011;3460;52.028;8.916;2024-02-26T03:05:49;2.20;;;1.23;;
6842;SDS011;3460;52.028;8.916;2024-02-26T03:08:15;1.73;;;1.17;;
6842;SDS011;3460;52.028;8.916;2024-02-26T03:10:44;1.27;;;1.07;;
6842;SDS011;3460;52.028;8.916;2024-02-26T03:13:12;1.37;;;1.10;;
6842;SDS011;3460;52.028;8.916;2024-02-26T03:15:39;1.40;;;1.00;;
6842;SDS011;3460;52.028;8.916;2024-02-26T03:18:06;1.23;;;0.90;;
6842;SDS011;3460;52.028;8.916;2024-02-26T03:20:33;1.97;;;1.10;;
6842;SDS011;3460;52.028;8.916;2024-02-26T03:22:59;1.47;;;1.27;;
6842;SDS011;3460;52.028;8.916;2024-02-26T03:25:26;1.80;;;1.20;;
6842;SDS011;3460;52.028;8.916;2024-02-26T03:27:53;2.20;;;1.10;;
6842;SDS011;3460;52.028;8.916;2024-02-26T03:30:21;1.47;;;1.20;;
6842;SDS011;3460;52.028;8.916;2024-02-26T03:32:48;1.43;;;1.20;;
6842;SDS011;3460;52.028;8.916;2024-02-26T03:35:14;1.57;;;1.20;;
6842;SDS011;3460;52.028;8.916;2024-02-26T03:37:41;2.10;;;1.30;;
6842;SDS011;3460;52.028;8.916;2024-02-26T03:40:08;2.27;;;1.20;;
6842;SDS011;3460;52.028;8.916;2024-02-26T03:42:38;3.80;;;1.43;;
6842;SDS011;3460;52.028;8.916;2024-02-26T03:45:05;1.70;;;1.37;;
6842;SDS011;3460;52.028;8.916;2024-02-26T03:47:33;1.47;;;1.20;;
6842;SDS011;3460;52.028;8.916;2024-02-26T03:50:00;1.40;;;1.10;;
6842;SDS011;3460;52.028;8.916;2024-02-26T03:52:29;1.40;;;1.20;;
6842;SDS011;3460;52.028;8.916;2024-02-26T03:54:55;1.20;;;1.10;;
6842;SDS011;3460;52.028;8.916;2024-02-26T03:57:22;1.63;;;1.10;;
6842;SDS011;3460;52.028;8.916;2024-02-26T03:59:49;1.70;;;1.23;;
6842;SDS011;3460;52.028;8.916;2024-02-26T04:02:16;1.53;;;1.30;;
6842;SDS011;3460;52.028;8.916;2024-02-26T04:04:45;1.67;;;1.30;;
6842;SDS011;3460;52.028;8.916;2024-02-26T04:07:12;1.30;;;1.10;;
6842;SDS011;3460;52.028;8.916;2024-02-26T04:09:39;1.43;;;1.20;;
6842;SDS011;3460;52.028;8.916;2024-02-26T04:12:06;1.73;;;1.30;;
6842;SDS011;3460;52.028;8.916;2024-02-26T04:14:33;3.83;;;1.30;;
6842;SDS011;3460;52.028;8.916;2024-02-26T04:17:01;1.40;;;1.10;;
6842;SDS011;3460;52.028;8.916;2024-02-26T04:19:28;1.33;;;1.10;;
6842;SDS011;3460;52.028;8.916;2024-02-26T04:21:56;1.17;;;1.00;;
6842;SDS011;3460;52.028;8.916;2024-02-26T04:24:23;1.77;;;1.50;;
6842;SDS011;3460;52.028;8.916;2024-02-26T04:26:50;3.80;;;1.27;;
6842;SDS011;3460;52.028;8.916;2024-02-26T04:29:16;2.30;;;1.07;;
6842;SDS011;3460;52.028;8.916;2024-02-26T04:31:43;2.13;;;1.23;;
6842;SDS011;3460;52.028;8.916;2024-02-26T04:34:11;1.30;;;1.10;;
6842;SDS011;3460;52.028;8.916;2024-02-26T04:36:38;1.30;;;1.00;;
6842;SDS011;3460;52.028;8.916;2024-02-26T04:39:06;3.07;;;1.17;;
6842;SDS011;3460;52.028;8.916;2024-02-26T04:41:32;2.30;;;1.03;;
6842;SDS011;3460;52.028;8.916;2024-02-26T04:43:59;0.90;;;0.80;;
6842;SDS011;3460;52.028;8.916;2024-02-26T04:46:26;1.13;;;1.03;;
6842;SDS011;3460;52.028;8.916;2024-02-26T04:48:54;3.17;;;1.40;;
6842;SDS011;3460;52.028;8.916;2024-02-26T04:51:20;1.67;;;1.00;;
6842;SDS011;3460;52.028;8.916;2024-02-26T04:53:47;2.23;;;1.20;;
6842;SDS011;3460;52.028;8.916;2024-02-26T04:56:15;3.27;;;1.13;;
6842;SDS011;3460;52.028;8.916;2024-02-26T04:58:42;1.13;;;0.90;;
6842;SDS011;3460;52.028;8.916;2024-02-26T05:01:09;1.50;;;1.10;;
6842;SDS011;3460;52.028;8.916;2024-02-26T05:03:36;1.97;;;0.93;;
6842;SDS011;3460;52.028;8.916;2024-02-26T05:06:03;0.97;;;0.87;;
6842;SDS011;3460;52.028;8.916;2024-02-26T05:08:30;3.40;;;1.90;;
6842;SDS011;3460;52.028;8.916;2024-02-26T05:10:58;4.43;;;2.27;;
6842;SDS011;3460;52.028;8.916;2024-02-26T05:13:27;5.37;;;2.40;;
6842;SDS011;3460;52.028;8.916;2024-02-26T05:15:54;3.73;;;1.77;;
6842;SDS011;3460;52.028;8.916;2024-02-26T05:18:21;2.43;;;1.60;;
6842;SDS011;3460;52.028;8.916;2024-02-26T05:20:48;2.00;;;1.20;;
6842;SDS011;3460;52.028;8.916;2024-02-26T05:23:15;1.43;;;1.30;;
6842;SDS011;3460;52.028;8.916;2024-02-26T05:25:42;2.07;;;1.10;;
6842;SDS011;3460;52.028;8.916;2024-02-26T05:28:10;1.50;;;1.13;;
6842;SDS011;3460;52.028;8.916;2024-02-26T05:30:39;1.10;;;1.00;;
6842;SDS011;3460;52.028;8.916;2024-02-26T05:33:06;1.07;;;0.97;;
6842;SDS011;3460;52.028;8.916;2024-02-26T05:35:32;1.40;;;1.30;;
6842;SDS011;3460;52.028;8.916;2024-02-26T05:37:59;2.43;;;1.13;;
6842;SDS011;3460;52.028;8.916;2024-02-26T05:40:26;1.43;;;1.10;;
6842;SDS011;3460;52.028;8.916;2024-02-26T05:42:53;1.40;;;1.10;;
6842;SDS011;3460;52.028;8.916;2024-02-26T05:45:19;1.53;;;1.07;;
6842;SDS011;3460;52.028;8.916;2024-02-26T05:47:48;1.80;;;1.30;;
6842;SDS011;3460;52.028;8.916;2024-02-26T05:50:15;1.37;;;1.20;;
6842;SDS011;3460;52.028;8.916;2024-02-26T05:52:42;1.50;;;1.20;;
6842;SDS011;3460;52.028;8.916;2024-02-26T05:55:09;1.17;;;1.03;;
6842;SDS011;3460;52.028;8.916;2024-02-26T05:57:36;1.67;;;1.10;;
6842;SDS011;3460;52.028;8.916;2024-02-26T06:00:03;2.37;;;1.13;;
6842;SDS011;3460;52.028;8.916;2024-02-26T06:02:31;1.57;;;1.10;;
6842;SDS011;3460;52.028;8.916;2024-02-26T06:04:59;6.17;;;4.10;;
6842;SDS011;3460;52.028;8.916;2024-02-26T06:07:26;7.40;;;3.07;;
6842;SDS011;3460;52.028;8.916;2024-02-26T06:09:52;1.70;;;1.60;;
6842;SDS011;3460;52.028;8.916;2024-02-26T06:12:20;3.37;;;1.77;;
6842;SDS011;3460;52.028;8.916;2024-02-26T06:14:46;2.20;;;1.40;;
6842;SDS011;3460;52.028;8.916;2024-02-26T06:17:13;3.23;;;1.40;;
6842;SDS011;3460;52.028;8.916;2024-02-26T06:19:40;1.87;;;1.40;;
6842;SDS011;3460;52.028;8.916;2024-02-26T06:22:08;1.83;;;1.30;;
6842;SDS011;3460;52.028;8.916;2024-02-26T06:24:35;3.87;;;2.30;;
6842;SDS011;3460;52.028;8.916;2024-02-26T06:27:02;2.90;;;2.00;;
6842;SDS011;3460;52.028;8.916;2024-02-26T06:29:29;6.93;;;3.30;;
6842;SDS011;3460;52.028;8.916;2024-02-26T06:31:56;7.13;;;3.57;;
6842;SDS011;3460;52.028;8.916;2024-02-26T06:34:22;5.07;;;3.17;;
6842;SDS011;3460;52.028;8.916;2024-02-26T06:36:49;5.43;;;3.30;;
6842;SDS011;3460;52.028;8.916;2024-02-26T06:39:17;9.60;;;4.60;;
6842;SDS011;3460;52.028;8.916;2024-02-26T06:41:44;6.73;;;3.47;;
6842;SDS011;3460;52.028;8.916;2024-02-26T06:44:11;2.97;;;1.90;;
6842;SDS011;3460;52.028;8.916;2024-02-26T06:46:39;4.20;;;2.33;;
6842;SDS011;3460;52.028;8.916;2024-02-26T06:49:05;2.70;;;1.70;;
6842;SDS011;3460;52.028;8.916;2024-02-26T06:51:32;2.30;;;1.63;;
6842;SDS011;3460;52.028;8.916;2024-02-26T06:53:59;2.67;;;2.40;;
6842;SDS011;3460;52.028;8.916;2024-02-26T06:56:27;2.57;;;2.30;;
6842;SDS011;3460;52.028;8.916;2024-02-26T06:58:54;2.50;;;2.30;;
6842;SDS011;3460;52.028;8.916;2024-02-26T07:01:21;3.20;;;1.90;;
6842;SDS011;3460;52.028;8.916;2024-02-26T07:03:48;1.90;;;1.37;;
6842;SDS011;3460;52.028;8.916;2024-02-26T07:06:14;1.37;;;1.17;;
6842;SDS011;3460;52.028;8.916;2024-02-26T07:08:41;2.57;;;1.77;;
6842;SDS011;3460;52.028;8.916;2024-02-26T07:11:10;2.47;;;1.70;;
6842;SDS011;3460;52.028;8.916;2024-02-26T07:13:38;3.17;;;1.47;;
6842;SDS011;3460;52.028;8.916;2024-02-26T07:16:05;1.93;;;1.30;;
6842;SDS011;3460;52.028;8.916;2024-02-26T07:18:35;2.43;;;1.70;;
6842;SDS011;3460;52.028;8.916;2024-02-26T07:21:01;2.03;;;1.50;;
6842;SDS011;3460;52.028;8.916;2024-02-26T07:23:28;3.20;;;2.10;;
6842;SDS011;3460;52.028;8.916;2024-02-26T07:25:55;3.23;;;1.97;;
6842;SDS011;3460;52.028;8.916;2024-02-26T07:28:22;3.03;;;2.27;;
6842;SDS011;3460;52.028;8.916;2024-02-26T07:30:51;3.27;;;2.10;;
6842;SDS011;3460;52.028;8.916;2024-02-26T07:33:18;4.00;;;2.30;;
6842;SDS011;3460;52.028;8.916;2024-02-26T07:35:45;2.97;;;1.93;;
6842;SDS011;3460;52.028;8.916;2024-02-26T07:38:12;5.20;;;2.50;;
6842;SDS011;3460;52.028;8.916;2024-02-26T07:40:39;2.57;;;2.00;;
6842;SDS011;3460;52.028;8.916;2024-02-26T07:43:06;4.60;;;2.40;;
6842;SDS011;3460;52.028;8.916;2024-02-26T07:45:32;3.77;;;2.20;;
6842;SDS011;3460;52.028;8.916;2024-02-26T07:48:02;3.33;;;2.57;;
6842;SDS011;3460;52.028;8.916;2024-02-26T07:50:29;4.17;;;2.83;;
6842;SDS011;3460;52.028;8.916;2024-02-26T07:52:56;5.50;;;3.10;;
6842;SDS011;3460;52.028;8.916;2024-02-26T07:55:23;4.67;;;3.20;;
6842;SDS011;3460;52.028;8.916;2024-02-26T07:57:50;4.17;;;3.13;;
6842;SDS011;3460;52.028;8.916;2024-02-26T08:00:17;4.43;;;3.07;;
6842;SDS011;3460;52.028;8.916;2024-02-26T08:02:44;4.00;;;3.07;;
6842;SDS011;3460;52.028;8.916;2024-02-26T08:05:13;5.07;;;3.43;;
6842;SDS011;3460;52.028;8.916;2024-02-26T08:07:40;4.53;;;3.50;;
6842;SDS011;3460;52.028;8.916;2024-02-26T08:10:07;5.90;;;3.63;;
6842;SDS011;3460;52.028;8.916;2024-02-26T08:12:35;4.07;;;3.27;;
6842;SDS011;3460;52.028;8.916;2024-02-26T08:15:01;5.10;;;3.23;;
6842;SDS011;3460;52.028;8.916;2024-02-26T08:17:29;5.67;;;3.20;;
6842;SDS011;3460;52.028;8.916;2024-02-26T08:19:57;5.93;;;3.47;;
6842;SDS011;3460;52.028;8.916;2024-02-26T08:22:26;6.10;;;3.23;;
6842;SDS011;3460;52.028;8.916;2024-02-26T08:24:53;5.00;;;3.27;;
6842;SDS011;3460;52.028;8.916;2024-02-26T08:27:19;4.67;;;3.10;;
6842;SDS011;3460;52.028;8.916;2024-02-26T08:29:46;5.10;;;3.50;;
6842;SDS011;3460;52.028;8.916;2024-02-26T08:32:13;4.97;;;3.50;;
6842;SDS011;3460;52.028;8.916;2024-02-26T08:34:40;5.80;;;3.60;;
6842;SDS011;3460;52.028;8.916;2024-02-26T08:37:06;6.70;;;3.33;;
6842;SDS011;3460;52.028;8.916;2024-02-26T08:39:34;5.17;;;3.50;;
6842;SDS011;3460;52.028;8.916;2024-02-26T08:42:01;4.97;;;3.40;;
6842;SDS011;3460;52.028;8.916;2024-02-26T08:44:28;5.77;;;3.50;;
6842;SDS011;3460;52.028;8.916;2024-02-26T08:46:55;4.80;;;3.23;;
6842;SDS011;3460;52.028;8.916;2024-02-26T08:49:22;4.57;;;3.30;;
6842;SDS011;3460;52.028;8.916;2024-02-26T08:51:48;4.07;;;2.93;;
6842;SDS011;3460;52.028;8.916;2024-02-26T08:54:15;4.70;;;3.00;;
6842;SDS011;3460;52.028;8.916;2024-02-26T08:56:43;4.13;;;3.03;;
6842;SDS011;3460;52.028;8.916;2024-02-26T08:59:10;5.00;;;3.00;;
6842;SDS011;3460;52.028;8.916;2024-02-26T09:01:37;5.70;;;3.53;;
6842;SDS011;3460;52.028;8.916;2024-02-26T09:04:04;4.30;;;2.90;;
6842;SDS011;3460;52.028;8.916;2024-02-26T09:06:30;5.00;;;3.47;;
6842;SDS011;3460;52.028;8.916;2024-02-26T09:08:57;4.90;;;2.77;;
6842;SDS011;3460;52.028;8.916;2024-02-26T09:11:24;4.30;;;3.10;;
6842;SDS011;3460;52.028;8.916;2024-02-26T09:13:52;3.83;;;3.00;;
6842;SDS011;3460;52.028;8.916;2024-02-26T09:16:19;3.90;;;2.83;;
6842;SDS011;3460;52.028;8.916;2024-02-26T09:18:45;4.20;;;2.73;;
6842;SDS011;3460;52.028;8.916;2024-02-26T09:21:12;3.73;;;2.60;;
6842;SDS011;3460;52.028;8.916;2024-02-26T09:23:40;3.20;;;2.40;;
6842;SDS011;3460;52.028;8.916;2024-02-26T09:26:07;2.80;;;1.93;;
6842;SDS011;3460;52.028;8.916;2024-02-26T09:28:34;4.93;;;2.93;;
6842;SDS011;3460;52.028;8.916;2024-02-26T09:31:03;5.87;;;3.47;;
6842;SDS011;3460;52.028;8.916;2024-02-26T09:33:31;4.53;;;2.80;;
6842;SDS011;3460;52.028;8.916;2024-02-26T09:35:58;4.80;;;3.13;;
6842;SDS011;3460;52.028;8.916;2024-02-26T09:38:25;3.47;;;2.50;;
6842;SDS011;3460;52.028;8.916;2024-02-26T09:40:52;4.33;;;2.70;;
6842;SDS011;3460;52.028;8.916;2024-02-26T09:43:21;4.50;;;3.27;;
6842;SDS011;3460;52.028;8.916;2024-02-26T09:45:49;22.07;;;11.77;;
6842;SDS011;3460;52.028;8.916;2024-02-26T09:48:17;15.13;;;7.07;;
6842;SDS011;3460;52.028;8.916;2024-02-26T09:50:45;11.40;;;6.87;;
6842;SDS011;3460;52.028;8.916;2024-02-26T09:53:12;4.50;;;3.77;;
6842;SDS011;3460;52.028;8.916;2024-02-26T09:55:39;5.43;;;3.43;;
6842;SDS011;3460;52.028;8.916;2024-02-26T09:58:06;6.27;;;4.20;;
6842;SDS011;3460;52.028;8.916;2024-02-26T10:00:34;5.33;;;3.70;;
6842;SDS011;3460;52.028;8.916;2024-02-26T10:03:04;7.93;;;3.40;;
6842;SDS011;3460;52.028;8.916;2024-02-26T10:05:32;11.97;;;9.03;;
6842;SDS011;3460;52.028;8.916;2024-02-26T10:08:00;5.10;;;3.60;;
6842;SDS011;3460;52.028;8.916;2024-02-26T10:10:28;5.73;;;3.87;;
6842;SDS011;3460;52.028;8.916;2024-02-26T10:12:56;5.27;;;3.63;;
6842;SDS011;3460;52.028;8.916;2024-02-26T10:15:24;16.00;;;4.80;;
6842;SDS011;3460;52.028;8.916;2024-02-26T10:17:50;10.20;;;4.70;;
6842;SDS011;3460;52.028;8.916;2024-02-26T10:20:18;6.20;;;4.47;;
6842;SDS011;3460;52.028;8.916;2024-02-26T10:22:48;5.37;;;4.10;;
6842;SDS011;3460;52.028;8.916;2024-02-26T10:25:15;5.67;;;4.23;;
6842;SDS011;3460;52.028;8.916;2024-02-26T10:27:42;7.23;;;4.77;;
6842;SDS011;3460;52.028;8.916;2024-02-26T10:30:18;6.00;;;3.93;;
6842;SDS011;3460;52.028;8.916;2024-02-26T10:32:46;6.90;;;4.23;;
6842;SDS011;3460;52.028;8.916;2024-02-26T10:35:13;6.87;;;4.93;;
6842;SDS011;3460;52.028;8.916;2024-02-26T10:37:41;10.00;;;5.67;;
6842;SDS011;3460;52.028;8.916;2024-02-26T10:40:11;6.33;;;4.33;;
6842;SDS011;3460;52.028;8.916;2024-02-26T10:42:38;5.63;;;3.87;;
6842;SDS011;3460;52.028;8.916;2024-02-26T10:45:05;6.53;;;4.10;;
6842;SDS011;3460;52.028;8.916;2024-02-26T10:47:34;5.93;;;4.13;;
6842;SDS011;3460;52.028;8.916;2024-02-26T10:50:01;8.23;;;4.43;;
6842;SDS011;3460;52.028;8.916;2024-02-26T10:52:30;6.17;;;4.33;;
6842;SDS011;3460;52.028;8.916;2024-02-26T10:54:58;6.17;;;4.60;;
6842;SDS011;3460;52.028;8.916;2024-02-26T10:57:31;6.67;;;4.10;;
6842;SDS011;3460;52.028;8.916;2024-02-26T11:00:00;6.90;;;4.60;;
6842;SDS011;3460;52.028;8.916;2024-02-26T11:02:29;6.83;;;4.80;;
6842;SDS011;3460;52.028;8.916;2024-02-26T11:04:58;5.80;;;4.67;;
6842;SDS011;3460;52.028;8.916;2024-02-26T11:07:26;6.47;;;4.40;;
6842;SDS011;3460;52.028;8.916;2024-02-26T11:09:54;5.87;;;4.80;;
6842;SDS011;3460;52.028;8.916;2024-02-26T11:12:22;8.07;;;4.93;;
6842;SDS011;3460;52.028;8.916;2024-02-26T11:14:51;8.37;;;5.87;;
6842;SDS011;3460;52.028;8.916;2024-02-26T11:17:20;7.80;;;5.23;;
6842;SDS011;3460;52.028;8.916;2024-02-26T11:19:48;7.37;;;5.17;;
6842;SDS011;3460;52.028;8.916;2024-02-26T11:22:16;9.93;;;5.50;;
6842;SDS011;3460;52.028;8.916;2024-02-26T11:24:43;9.13;;;5.30;;
6842;SDS011;3460;52.028;8.916;2024-02-26T11:27:10;7.23;;;5.57;;
6842;SDS011;3460;52.028;8.916;2024-02-26T11:29:39;7.63;;;5.00;;
6842;SDS011;3460;52.028;8.916;2024-02-26T11:32:10;8.80;;;5.63;;
6842;SDS011;3460;52.028;8.916;2024-02-26T11:34:37;7.90;;;5.23;;
6842;SDS011;3460;52.028;8.916;2024-02-26T11:37:10;7.33;;;4.70;;
6842;SDS011;3460;52.028;8.916;2024-02-26T11:39:39;6.87;;;4.90;;
6842;SDS011;3460;52.028;8.916;2024-02-26T11:42:06;8.30;;;5.17;;
6842;SDS011;3460;52.028;8.916;2024-02-26T11:44:34;8.60;;;5.77;;
6842;SDS011;3460;52.028;8.916;2024-02-26T11:47:10;7.13;;;4.37;;
6842;SDS011;3460;52.028;8.916;2024-02-26T11:49:38;8.80;;;4.83;;
6842;SDS011;3460;52.028;8.916;2024-02-26T11:52:05;5.37;;;4.20;;
6842;SDS011;3460;52.028;8.916;2024-02-26T11:54:40;8.20;;;3.80;;
6842;SDS011;3460;52.028;8.916;2024-02-26T11:57:19;6.50;;;3.83;;
6842;SDS011;3460;52.028;8.916;2024-02-26T11:59:47;6.70;;;3.43;;
6842;SDS011;3460;52.028;8.916;2024-02-26T12:05:11;6.30;;;3.83;;
6842;SDS011;3460;52.028;8.916;2024-02-26T12:07:45;7.10;;;4.73;;
6842;SDS011;3460;52.028;8.916;2024-02-26T12:10:14;7.63;;;4.70;;
6842;SDS011;3460;52.028;8.916;2024-02-26T12:12:42;7.00;;;4.10;;
6842;SDS011;3460;52.028;8.916;2024-02-26T12:15:09;8.40;;;4.90;;
6842;SDS011;3460;52.028;8.916;2024-02-26T12:17:37;6.07;;;3.63;;
6842;SDS011;3460;52.028;8.916;2024-02-26T12:20:11;5.10;;;3.20;;
6842;SDS011;3460;52.028;8.916;2024-02-26T12:22:39;5.10;;;3.83;;
6842;SDS011;3460;52.028;8.916;2024-02-26T12:25:08;5.90;;;3.63;;
6842;SDS011;3460;52.028;8.916;2024-02-26T12:27:35;6.13;;;3.60;;
6842;SDS011;3460;52.028;8.916;2024-02-26T12:30:02;4.30;;;3.27;;
6842;SDS011;3460;52.028;8.916;2024-02-26T12:32:29;5.77;;;4.17;;
6842;SDS011;3460;52.028;8.916;2024-02-26T12:34:56;4.77;;;3.13;;
6842;SDS011;3460;52.028;8.916;2024-02-26T12:37:24;7.23;;;4.77;;
6842;SDS011;3460;52.028;8.916;2024-02-26T12:39:52;7.47;;;4.20;;
6842;SDS011;3460;52.028;8.916;2024-02-26T12:42:18;4.43;;;3.37;;
6842;SDS011;3460;52.028;8.916;2024-02-26T12:44:46;5.23;;;4.17;;
6842;SDS011;3460;52.028;8.916;2024-02-26T12:47:12;3.77;;;2.73;;
6842;SDS011;3460;52.028;8.916;2024-02-26T12:49:42;4.10;;;3.43;;
6842;SDS011;3460;52.028;8.916;2024-02-26T12:52:09;4.53;;;2.80;;
6842;SDS011;3460;52.028;8.916;2024-02-26T12:54:38;5.43;;;3.40;;
6842;SDS011;3460;52.028;8.916;2024-02-26T12:57:04;5.50;;;3.20;;
6842;SDS011;3460;52.028;8.916;2024-02-26T12:59:32;3.70;;;2.80;;
6842;SDS011;3460;52.028;8.916;2024-02-26T13:02:00;4.70;;;2.90;;
6842;SDS011;3460;52.028;8.916;2024-02-26T13:04:28;4.30;;;2.37;;
6842;SDS011;3460;52.028;8.916;2024-02-26T13:06:56;3.97;;;2.43;;
6842;SDS011;3460;52.028;8.916;2024-02-26T13:09:25;3.83;;;2.27;;
6842;SDS011;3460;52.028;8.916;2024-02-26T13:11:54;3.53;;;2.40;;
6842;SDS011;3460;52.028;8.916;2024-02-26T13:14:21;4.90;;;2.30;;
6842;SDS011;3460;52.028;8.916;2024-02-26T13:16:54;3.43;;;2.40;;
6842;SDS011;3460;52.028;8.916;2024-02-26T13:19:21;3.60;;;2.40;;
6842;SDS011;3460;52.028;8.916;2024-02-26T13:21:48;4.50;;;2.47;;
6842;SDS011;3460;52.028;8.916;2024-02-26T13:24:15;2.57;;;1.93;;
6842;SDS011;3460;52.028;8.916;2024-02-26T13:26:43;2.20;;;1.77;;
6842;SDS011;3460;52.028;8.916;2024-02-26T13:29:17;2.73;;;2.00;;
6842;SDS011;3460;52.028;8.916;2024-02-26T13:31:44;2.43;;;2.00;;
6842;SDS011;3460;52.028;8.916;2024-02-26T13:34:11;3.43;;;1.90;;
6842;SDS011;3460;52.028;8.916;2024-02-26T13:36:49;2.70;;;2.10;;
6842;SDS011;3460;52.028;8.916;2024-02-26T13:39:21;3.30;;;2.40;;
6842;SDS011;3460;52.028;8.916;2024-02-26T13:41:48;2.43;;;2.03;;
6842;SDS011;3460;52.028;8.916;2024-02-26T13:44:15;3.73;;;1.80;;
6842;SDS011;3460;52.028;8.916;2024-02-26T13:46:43;4.37;;;2.47;;
6842;SDS011;3460;52.028;8.916;2024-02-26T13:49:10;3.63;;;2.40;;
6842;SDS011;3460;52.028;8.916;2024-02-26T13:51:38;4.43;;;2.27;;
6842;SDS011;3460;52.028;8.916;2024-02-26T13:54:05;4.37;;;2.60;;
6842;SDS011;3460;52.028;8.916;2024-02-26T13:56:32;2.50;;;2.20;;
6842;SDS011;3460;52.028;8.916;2024-02-26T13:58:59;3.03;;;2.03;;
6842;SDS011;3460;52.028;8.916;2024-02-26T14:01:27;4.27;;;2.70;;
6842;SDS011;3460;52.028;8.916;2024-02-26T14:03:54;5.13;;;2.50;;
6842;SDS011;3460;52.028;8.916;2024-02-26T14:06:22;2.67;;;2.23;;
6842;SDS011;3460;52.028;8.916;2024-02-26T14:08:49;3.53;;;2.43;;
6842;SDS011;3460;52.028;8.916;2024-02-26T14:11:16;4.53;;;3.13;;
6842;SDS011;3460;52.028;8.916;2024-02-26T14:13:43;6.10;;;2.77;;
6842;SDS011;3460;52.028;8.916;2024-02-26T14:16:11;4.40;;;2.77;;
6842;SDS011;3460;52.028;8.916;2024-02-26T14:18:40;5.00;;;3.53;;
6842;SDS011;3460;52.028;8.916;2024-02-26T14:21:09;4.40;;;2.97;;
6842;SDS011;3460;52.028;8.916;2024-02-26T14:23:36;3.83;;;2.47;;
6842;SDS011;3460;52.028;8.916;2024-02-26T14:26:03;5.43;;;3.67;;
6842;SDS011;3460;52.028;8.916;2024-02-26T14:28:29;4.93;;;3.50;;
6842;SDS011;3460;52.028;8.916;2024-02-26T14:30:58;11.50;;;6.90;;
6842;SDS011;3460;52.028;8.916;2024-02-26T14:33:24;9.57;;;6.20;;
6842;SDS011;3460;52.028;8.916;2024-02-26T14:35:52;3.70;;;3.10;;
6842;SDS011;3460;52.028;8.916;2024-02-26T14:38:19;6.57;;;3.00;;
6842;SDS011;3460;52.028;8.916;2024-02-26T14:40:48;3.77;;;2.87;;
6842;SDS011;3460;52.028;8.916;2024-02-26T14:43:15;5.10;;;3.40;;
6842;SDS011;3460;52.028;8.916;2024-02-26T14:45:41;5.43;;;2.97;;
6842;SDS011;3460;52.028;8.916;2024-02-26T14:48:08;4.63;;;2.77;;
6842;SDS011;3460;52.028;8.916;2024-02-26T14:50:36;5.17;;;3.00;;
6842;SDS011;3460;52.028;8.916;2024-02-26T14:53:04;5.30;;;3.07;;
6842;SDS011;3460;52.028;8.916;2024-02-26T14:55:31;4.40;;;3.00;;
6842;SDS011;3460;52.028;8.916;2024-02-26T14:57:59;6.90;;;3.53;;
6842;SDS011;3460;52.028;8.916;2024-02-26T15:00:26;5.10;;;2.97;;
6842;SDS011;3460;52.028;8.916;2024-02-26T15:02:52;6.87;;;3.90;;
6842;SDS011;3460;52.028;8.916;2024-02-26T15:05:20;3.90;;;2.97;;
6842;SDS011;3460;52.028;8.916;2024-02-26T15:07:47;5.97;;;3.67;;
6842;SDS011;3460;52.028;8.916;2024-02-26T15:10:15;9.20;;;3.60;;
6842;SDS011;3460;52.028;8.916;2024-02-26T15:12:42;6.97;;;3.80;;
6842;SDS011;3460;52.028;8.916;2024-02-26T15:15:09;6.13;;;4.17;;
6842;SDS011;3460;52.028;8.916;2024-02-26T15:17:36;4.93;;;3.30;;
6842;SDS011;3460;52.028;8.916;2024-02-26T15:20:03;4.83;;;3.40;;